Time;durP1;ratioP1;P1;durP2;ratioP2;P2;SDS_P1;SDS_P2;PMS_P1;PMS_P2;Temp;Humidity;BMP_temperature;BMP_pressure;BME280_temperature;BME280_humidity;BME280_pressure;Samples;Min_cycle;Max_cycle;Signal;HPM_P1;HPM_P2
2023/04/11 00:01:34;;;;;;;;;;;8.40;99.90;;;;;;5055745;28;19908;-77
2023/04/11 00:04:00;;;;;;;;;;;8.50;99.90;;;;;;5055440;28;19908;-77
2023/04/11 00:06:26;;;;;;;;;;;8.50;99.90;;;;;;5055462;28;19916;-77
2023/04/11 00:08:52;;;;;;;;;;;8.60;99.90;;;;;;5073511;28;19908;-77
2023/04/11 00:11:17;;;;;;;;;;;8.60;99.90;;;;;;5055320;28;19912;-77
2023/04/11 00:13:44;;;;;;;;;;;8.60;99.90;;;;;;5073276;28;19930;-77
2023/04/11 00:16:09;;;;;;;;;;;8.70;99.90;;;;;;5055661;28;19916;-78
2023/04/11 00:18:36;;;;;;;;;;;8.90;99.90;;;;;;5073146;28;20317;-77
2023/04/11 00:21:05;;;;;;;;;;;8.70;99.90;;;;;;5073371;28;19923;-77
2023/04/11 00:23:31;;;;;;;;;;;8.70;99.90;;;;;;5055302;28;19909;-77
2023/04/11 00:25:57;;;;;;;;;;;8.70;99.90;;;;;;5055283;28;19932;-77
2023/04/11 00:28:22;;;;;;;;;;;9.60;99.90;;;;;;5073066;28;19975;-78
2023/04/11 00:30:48;;;;;;;;;;;8.80;99.90;;;;;;5073155;28;19971;-77
2023/04/11 00:33:13;;;;;;;;;;;8.80;99.90;;;;;;5073293;28;19909;-77
2023/04/11 00:35:39;;;;;;;;;;;8.70;99.90;;;;;;5055684;28;20387;-78
2023/04/11 00:38:05;;;;;;;;;;;9.60;99.90;;;;;;5058852;28;19908;-77
2023/04/11 00:40:30;;;;;;;;;;;9.10;99.90;;;;;;5059493;28;20382;-78
2023/04/11 00:42:56;;;;;;;;;;;8.70;99.90;;;;;;5076862;28;19908;-78
2023/04/11 00:45:21;;;;;;;;;;;8.60;99.90;;;;;;5076873;28;20380;-77
2023/04/11 00:47:47;;;;;;;;;;;8.60;99.90;;;;;;5058742;28;19908;-77
2023/04/11 00:50:15;;;;;;;;;;;8.60;99.90;;;;;;5076446;28;19909;-77
2023/04/11 00:52:42;;;;;;;;;;;8.60;99.90;;;;;;5058665;28;19912;-77
2023/04/11 00:55:08;;;;;;;;;;;8.60;99.90;;;;;;5076513;28;20308;-77
2023/04/11 00:57:34;;;;;;;;;;;8.60;99.90;;;;;;5058485;28;19908;-77
2023/04/11 01:00:00;;;;;;;;;;;8.60;99.90;;;;;;5058583;28;19945;-77
2023/04/11 01:02:26;;;;;;;;;;;8.60;99.90;;;;;;5076386;28;20290;-78
2023/04/11 01:04:52;;;;;;;;;;;8.70;99.90;;;;;;5076381;28;19915;-77
2023/04/11 01:07:18;;;;;;;;;;;8.70;99.90;;;;;;5076193;28;19908;-77
2023/04/11 01:09:44;;;;;;;;;;;8.80;99.90;;;;;;5076235;28;19915;-77
2023/04/11 01:12:11;;;;;;;;;;;8.80;99.90;;;;;;5076170;28;19969;-78
2023/04/11 01:14:37;;;;;;;;;;;8.80;99.90;;;;;;5058231;28;20287;-77
2023/04/11 01:17:02;;;;;;;;;;;8.90;99.90;;;;;;5076246;28;19958;-77
2023/04/11 01:19:28;;;;;;;;;;;8.90;99.90;;;;;;5076251;28;19936;-78
2023/04/11 01:21:55;;;;;;;;;;;8.90;99.90;;;;;;5076055;28;19999;-78
2023/04/11 01:24:21;;;;;;;;;;;9.50;99.90;;;;;;5076068;28;20324;-78
2023/04/11 01:26:46;;;;;;;;;;;8.90;99.90;;;;;;5058003;28;19909;-78
2023/04/11 01:29:12;;;;;;;;;;;8.90;99.90;;;;;;5076268;28;19909;-78
2023/04/11 01:31:37;;;;;;;;;;;8.90;99.90;;;;;;5057875;28;19916;-78
2023/04/11 01:34:03;;;;;;;;;;;8.90;99.90;;;;;;5075824;28;20402;-78
2023/04/11 01:36:30;;;;;;;;;;;8.90;99.90;;;;;;5057639;28;19908;-78
2023/04/11 01:38:56;;;;;;;;;;;9.00;99.90;;;;;;5075645;28;19952;-78
2023/04/11 01:41:22;;;;;;;;;;;9.50;99.90;;;;;;5057595;28;19974;-78
2023/04/11 01:43:48;;;;;;;;;;;9.90;99.90;;;;;;5075598;28;19915;-78
2023/04/11 01:46:14;;;;;;;;;;;9.00;99.90;;;;;;5075214;28;19908;-79
2023/04/11 01:48:39;;;;;;;;;;;9.10;99.90;;;;;;5075426;28;19919;-78
2023/04/11 01:51:06;;;;;;;;;;;9.00;99.90;;;;;;5057493;28;20407;-78
2023/04/11 01:53:31;;;;;;;;;;;9.00;99.90;;;;;;5057574;28;20371;-79
2023/04/11 01:55:57;;;;;;;;;;;8.80;99.90;;;;;;5076002;28;19915;-78
2023/04/11 01:58:23;;;;;;;;;;;9.00;99.90;;;;;;5076308;28;19951;-79
2023/04/11 02:00:48;;;;;;;;;;;9.00;99.90;;;;;;5058212;28;20014;-79
2023/04/11 02:03:16;;;;;;;;;;;9.00;99.90;;;;;;5076340;28;19909;-79
2023/04/11 02:05:41;;;;;;;;;;;9.10;99.90;;;;;;5057337;28;19908;-79
2023/04/11 02:08:07;;;;;;;;;;;9.10;99.90;;;;;;5075215;28;20497;-78
2023/04/11 02:10:32;;;;;;;;;;;9.10;99.90;;;;;;5075663;28;19919;-79
2023/04/11 02:12:58;;;;;;;;;;;9.20;99.90;;;;;;5056976;28;20069;-78
2023/04/11 02:15:23;;;;;;;;;;;10.60;99.90;;;;;;5075154;28;20355;-78
2023/04/11 02:17:52;;;;;;;;;;;9.20;99.90;;;;;;5074936;28;20015;-78
2023/04/11 02:20:20;;;;;;;;;;;9.20;99.90;;;;;;5074667;28;20367;-78
2023/04/11 02:22:45;;;;;;;;;;;9.20;99.90;;;;;;5075570;28;20003;-78
2023/04/11 02:25:11;;;;;;;;;;;9.20;99.90;;;;;;5074923;28;19948;-78
2023/04/11 02:27:36;;;;;;;;;;;9.20;99.90;;;;;;5074684;28;19924;-78
2023/04/11 02:30:05;;;;;;;;;;;9.10;99.90;;;;;;5074725;28;19936;-77
2023/04/11 02:32:34;;;;;;;;;;;9.10;99.90;;;;;;5056770;28;19917;-78
2023/04/11 02:35:00;;;;;;;;;;;11.60;99.90;;;;;;5074593;28;19913;-78
2023/04/11 02:37:26;;;;;;;;;;;9.10;99.90;;;;;;5056525;28;19969;-78
2023/04/11 02:39:51;;;;;;;;;;;9.90;99.90;;;;;;5056848;28;19909;-77
2023/04/11 02:42:16;;;;;;;;;;;9.00;99.90;;;;;;5074426;28;19951;-77
2023/04/11 02:44:42;;;;;;;;;;;9.00;99.90;;;;;;5074904;28;19955;-78
2023/04/11 02:47:07;;;;;;;;;;;9.00;99.90;;;;;;5056394;28;19909;-77
2023/04/11 02:49:33;;;;;;;;;;;8.90;99.90;;;;;;5074256;28;19908;-77
2023/04/11 02:51:58;;;;;;;;;;;9.10;99.90;;;;;;5056308;28;19913;-77
2023/04/11 02:54:24;;;;;;;;;;;8.80;99.90;;;;;;5056356;28;19931;-77
2023/04/11 02:56:51;;;;;;;;;;;8.80;99.90;;;;;;5074191;28;19912;-77
2023/04/11 02:59:17;;;;;;;;;;;8.80;99.90;;;;;;5055447;28;20002;-78
2023/04/11 03:01:43;;;;;;;;;;;8.80;99.90;;;;;;5056224;28;19952;-78
2023/04/11 03:04:09;;;;;;;;;;;8.80;99.90;;;;;;5056306;28;20323;-78
2023/04/11 03:06:34;;;;;;;;;;;8.80;99.90;;;;;;5056190;28;19951;-78
2023/04/11 03:09:00;;;;;;;;;;;8.80;99.90;;;;;;5055959;28;20003;-75
2023/04/11 03:11:25;;;;;;;;;;;8.80;99.90;;;;;;5056134;28;19919;-75
2023/04/11 03:13:51;;;;;;;;;;;8.80;99.90;;;;;;5073806;28;20383;-75
2023/04/11 03:16:17;;;;;;;;;;;8.70;99.90;;;;;;5073771;28;19966;-75
2023/04/11 03:18:42;;;;;;;;;;;8.80;99.90;;;;;;5074119;28;19909;-75
2023/04/11 03:21:09;;;;;;;;;;;10.00;99.90;;;;;;5055630;28;19916;-76
2023/04/11 03:23:35;;;;;;;;;;;10.20;99.90;;;;;;5073719;28;19909;-76
2023/04/11 03:26:01;;;;;;;;;;;8.80;99.90;;;;;;5073724;28;19915;-76
2023/04/11 03:28:27;;;;;;;;;;;8.80;99.90;;;;;;5074213;28;19992;-75
2023/04/11 03:30:53;;;;;;;;;;;8.90;99.90;;;;;;5056196;28;20015;-76
2023/04/11 03:33:18;;;;;;;;;;;8.90;99.90;;;;;;5055716;28;19915;-76
2023/04/11 03:35:44;;;;;;;;;;;8.80;99.90;;;;;;5073620;28;19912;-76
2023/04/11 03:38:09;;;;;;;;;;;8.70;99.90;;;;;;5073928;28;19920;-75
2023/04/11 03:40:35;;;;;;;;;;;8.70;99.90;;;;;;5074190;28;19962;-76
2023/04/11 03:43:00;;;;;;;;;;;8.60;99.90;;;;;;5055670;28;19909;-76
2023/04/11 03:45:26;;;;;;;;;;;8.60;99.90;;;;;;5055583;28;19915;-75
2023/04/11 03:47:52;;;;;;;;;;;9.50;99.90;;;;;;5073777;28;19962;-75
2023/04/11 03:50:17;;;;;;;;;;;8.50;99.90;;;;;;5055439;28;19912;-76
2023/04/11 03:52:43;;;;;;;;;;;8.50;99.90;;;;;;5073519;28;19915;-77
2023/04/11 03:55:08;;;;;;;;;;;8.40;99.90;;;;;;5073387;28;19909;-76
2023/04/11 03:57:34;;;;;;;;;;;8.30;99.90;;;;;;5055444;28;20025;-76
2023/04/11 04:00:00;;;;;;;;;;;8.30;99.90;;;;;;5055519;28;19913;-76
2023/04/11 04:02:25;;;;;;;;;;;8.20;99.90;;;;;;5055469;28;19915;-76
2023/04/11 04:04:57;;;;;;;;;;;8.20;99.90;;;;;;5073298;28;19908;-76
2023/04/11 04:07:23;;;;;;;;;;;8.20;99.90;;;;;;5073277;28;19915;-75
2023/04/11 04:09:48;;;;;;;;;;;8.20;99.90;;;;;;5074171;28;20355;-75
2023/04/11 04:12:16;;;;;;;;;;;8.20;99.90;;;;;;5077207;28;20432;-75
2023/04/11 04:14:42;;;;;;;;;;;8.20;99.90;;;;;;5077707;28;19917;-79
2023/04/11 04:17:07;;;;;;;;;;;9.20;99.90;;;;;;5081252;28;20371;-79
2023/04/11 04:19:33;;;;;;;;;;;8.20;99.90;;;;;;5063333;28;19909;-78
2023/04/11 04:21:58;;;;;;;;;;;8.20;99.90;;;;;;5062746;28;19916;-79
2023/04/11 04:24:28;;;;;;;;;;;8.20;99.90;;;;;;5061607;28;19917;-79
2023/04/11 04:26:56;;;;;;;;;;;8.10;99.90;;;;;;5061493;28;20011;-79
2023/04/11 04:29:22;;;;;;;;;;;10.30;99.90;;;;;;5080127;28;20049;-79
2023/04/11 04:31:51;;;;;;;;;;;9.00;99.90;;;;;;5081355;28;19962;-79
2023/04/11 04:34:20;;;;;;;;;;;8.00;99.90;;;;;;5079866;28;19955;-78
2023/04/11 04:36:48;;;;;;;;;;;8.00;99.90;;;;;;5061934;28;19908;-79
2023/04/11 04:39:17;;;;;;;;;;;10.90;99.90;;;;;;5062740;28;19909;-79
2023/04/11 04:41:47;;;;;;;;;;;8.00;99.90;;;;;;5079761;28;19931;-78
2023/04/11 04:44:14;;;;;;;;;;;8.00;99.90;;;;;;5078805;28;19923;-78
2023/04/11 04:46:40;;;;;;;;;;;8.00;99.90;;;;;;5061916;28;19919;-79
2023/04/11 04:49:06;;;;;;;;;;;9.80;99.90;;;;;;5062158;28;19909;-79
2023/04/11 04:51:32;;;;;;;;;;;7.80;99.90;;;;;;5062105;28;19919;-79
2023/04/11 04:53:58;;;;;;;;;;;7.80;99.90;;;;;;5062059;28;19916;-78
2023/04/11 04:56:25;;;;;;;;;;;7.70;99.90;;;;;;5080607;28;19935;-79
2023/04/11 04:58:50;;;;;;;;;;;7.60;99.90;;;;;;5080510;28;19913;-79
2023/04/11 05:01:16;;;;;;;;;;;7.50;99.90;;;;;;5080177;28;19915;-79
2023/04/11 05:03:43;;;;;;;;;;;7.50;99.90;;;;;;5079944;28;19958;-80
2023/04/11 05:06:09;;;;;;;;;;;8.70;99.90;;;;;;5063573;28;19908;-80
2023/04/11 05:08:34;;;;;;;;;;;7.60;99.90;;;;;;5061179;28;19915;-81
2023/04/11 05:11:00;;;;;;;;;;;8.60;99.90;;;;;;5078958;28;19917;-80
2023/04/11 05:13:25;;;;;;;;;;;8.10;99.90;;;;;;5061079;28;19909;-80
2023/04/11 05:15:51;;;;;;;;;;;7.50;99.90;;;;;;5060883;28;19909;-80
2023/04/11 05:18:16;;;;;;;;;;;10.00;99.90;;;;;;5060499;28;20371;-81
2023/04/11 05:20:42;;;;;;;;;;;7.50;99.90;;;;;;5060632;28;19921;-80
2023/04/11 05:23:07;;;;;;;;;;;7.80;99.90;;;;;;5060603;28;19999;-80
2023/04/11 05:25:33;;;;;;;;;;;7.50;99.90;;;;;;5079117;28;19936;-79
2023/04/11 05:27:58;;;;;;;;;;;7.50;99.90;;;;;;5078861;28;19955;-80
2023/04/11 05:30:24;;;;;;;;;;;7.50;99.90;;;;;;5078911;28;19909;-80
2023/04/11 05:32:49;;;;;;;;;;;7.60;99.90;;;;;;5078649;28;20398;-80
2023/04/11 05:35:15;;;;;;;;;;;8.80;99.90;;;;;;5060407;28;19916;-79
2023/04/11 05:37:41;;;;;;;;;;;7.60;99.90;;;;;;5061644;28;19916;-80
2023/04/11 05:40:07;;;;;;;;;;;10.40;99.90;;;;;;5060322;28;19959;-80
2023/04/11 05:42:33;;;;;;;;;;;7.70;99.90;;;;;;5079422;28;19908;-81
2023/04/11 05:44:58;;;;;;;;;;;7.80;99.90;;;;;;5060891;28;19915;-80
2023/04/11 05:47:24;;;;;;;;;;;8.40;99.90;;;;;;5078266;28;19955;-80
2023/04/11 05:49:49;;;;;;;;;;;9.90;99.90;;;;;;5060719;28;20271;-79
2023/04/11 05:52:15;;;;;;;;;;;8.00;99.90;;;;;;5062208;28;19921;-81
2023/04/11 05:54:41;;;;;;;;;;;8.00;99.90;;;;;;5061704;28;19909;-79
2023/04/11 05:57:06;;;;;;;;;;;8.10;99.90;;;;;;5078174;28;19944;-79
2023/04/11 05:59:33;;;;;;;;;;;8.10;99.90;;;;;;5079334;28;19909;-80
2023/04/11 06:01:59;;;;;;;;;;;8.10;99.90;;;;;;5079655;28;19995;-79
2023/04/11 06:04:24;;;;;;;;;;;8.20;99.90;;;;;;5076407;28;19997;-79
2023/04/11 06:06:51;;;;;;;;;;;8.30;99.90;;;;;;5076951;28;19919;-79
2023/04/11 06:09:16;;;;;;;;;;;8.30;99.90;;;;;;5060434;28;19936;-79
2023/04/11 06:11:42;;;;;;;;;;;8.40;99.90;;;;;;5059572;28;19913;-79
2023/04/11 06:14:07;;;;;;;;;;;8.50;99.90;;;;;;5061055;28;19908;-81
2023/04/11 06:16:35;;;;;;;;;;;8.90;99.90;;;;;;5076536;28;19908;-80
2023/04/11 06:19:04;;;;;;;;;;;8.60;99.90;;;;;;5060926;28;19915;-80
2023/04/11 06:21:31;;;;;;;;;;;8.70;99.90;;;;;;5061327;28;19934;-80
2023/04/11 06:24:01;;;;;;;;;;;8.70;99.90;;;;;;5078704;28;19908;-81
2023/04/11 06:26:27;;;;;;;;;;;8.80;99.90;;;;;;5078769;28;19913;-80
2023/04/11 06:28:52;;;;;;;;;;;9.10;99.90;;;;;;5079371;28;19953;-80
2023/04/11 06:31:17;;;;;;;;;;;8.90;99.90;;;;;;5060386;28;19919;-80
2023/04/11 06:33:43;;;;;;;;;;;9.00;99.90;;;;;;5077909;28;20374;-80
2023/04/11 06:36:09;;;;;;;;;;;9.10;99.90;;;;;;5060726;28;19916;-79
2023/04/11 06:38:35;;;;;;;;;;;9.20;99.90;;;;;;5060469;28;20008;-80
2023/04/11 06:41:00;;;;;;;;;;;9.20;99.90;;;;;;5060540;28;20354;-78
2023/04/11 06:43:26;;;;;;;;;;;9.30;99.90;;;;;;5079092;28;19948;-78
2023/04/11 06:45:51;;;;;;;;;;;9.20;99.90;;;;;;5080492;28;20347;-79
2023/04/11 06:48:17;;;;;;;;;;;11.90;99.90;;;;;;5079683;28;19908;-79
2023/04/11 06:50:44;;;;;;;;;;;11.30;99.90;;;;;;5062718;28;20413;-79
2023/04/11 06:53:10;;;;;;;;;;;11.00;99.90;;;;;;5079330;28;19956;-79
2023/04/11 06:55:35;;;;;;;;;;;9.50;99.90;;;;;;5060649;28;20421;-78
2023/04/11 06:58:00;;;;;;;;;;;9.40;99.90;;;;;;5058272;28;20004;-78
2023/04/11 07:00:26;;;;;;;;;;;9.40;99.90;;;;;;5076465;28;19908;-79
2023/04/11 07:02:52;;;;;;;;;;;9.50;99.90;;;;;;5074859;28;19962;-77
2023/04/11 07:05:17;;;;;;;;;;;9.60;99.90;;;;;;5074286;28;19991;-78
2023/04/11 07:07:42;;;;;;;;;;;10.50;99.90;;;;;;5074586;28;19943;-77
2023/04/11 07:10:08;;;;;;;;;;;9.70;99.90;;;;;;5075590;28;20364;-78
2023/04/11 07:12:33;;;;;;;;;;;9.70;99.90;;;;;;5060053;28;19912;-77
2023/04/11 07:14:59;;;;;;;;;;;9.70;99.90;;;;;;5076347;28;19920;-77
2023/04/11 07:17:25;;;;;;;;;;;9.70;99.90;;;;;;5057805;28;19987;-77
2023/04/11 07:19:50;;;;;;;;;;;9.70;99.90;;;;;;5075841;28;19912;-77
2023/04/11 07:22:16;;;;;;;;;;;9.70;99.90;;;;;;5057922;28;20383;-77
2023/04/11 07:24:42;;;;;;;;;;;9.70;99.90;;;;;;5057719;28;19972;-77
2023/04/11 07:27:07;;;;;;;;;;;10.10;99.90;;;;;;5075987;28;20007;-77
2023/04/11 07:29:33;;;;;;;;;;;9.80;99.90;;;;;;5058245;28;20422;-77
2023/04/11 07:31:58;;;;;;;;;;;10.70;99.90;;;;;;5075708;28;19916;-77
2023/04/11 07:34:24;;;;;;;;;;;10.00;99.90;;;;;;5057830;28;19971;-77
2023/04/11 07:36:49;;;;;;;;;;;10.70;99.90;;;;;;5057825;28;19913;-77
2023/04/11 07:39:15;;;;;;;;;;;10.10;99.90;;;;;;5076155;28;19909;-77
2023/04/11 07:41:40;;;;;;;;;;;10.90;99.90;;;;;;5075488;28;19909;-77
2023/04/11 07:44:08;;;;;;;;;;;10.30;99.90;;;;;;5076014;28;19967;-77
2023/04/11 07:46:33;;;;;;;;;;;10.30;99.90;;;;;;5075356;28;19909;-77
2023/04/11 07:48:59;;;;;;;;;;;10.30;99.90;;;;;;5057000;28;19995;-76
2023/04/11 07:51:26;;;;;;;;;;;12.60;99.90;;;;;;5074781;28;19951;-77
2023/04/11 07:53:51;;;;;;;;;;;10.50;99.90;;;;;;5056768;28;19915;-77
2023/04/11 07:56:17;;;;;;;;;;;10.50;99.90;;;;;;5074932;28;19909;-76
2023/04/11 07:58:42;;;;;;;;;;;10.60;99.90;;;;;;5057444;28;19913;-76
2023/04/11 08:01:21;;;;;;;;;;;10.60;99.90;;;;;;5057015;28;20291;-76
2023/04/11 08:03:46;;;;;;;;;;;10.40;99.90;;;;;;5074890;28;19962;-77
2023/04/11 08:06:12;;;;;;;;;;;10.20;99.90;;;;;;5056952;28;20337;-77
2023/04/11 08:08:37;;;;;;;;;;;10.20;99.90;;;;;;5074839;28;20431;-76
2023/04/11 08:11:03;;;;;;;;;;;10.30;99.90;;;;;;5074897;28;19915;-77
2023/04/11 08:13:28;;;;;;;;;;;10.30;99.90;;;;;;5076296;28;19991;-77
2023/04/11 08:15:54;;;;;;;;;;;10.30;99.90;;;;;;5056972;28;19908;-77
2023/04/11 08:18:20;;;;;;;;;;;10.30;99.90;;;;;;5056397;28;19985;-77
2023/04/11 08:20:47;;;;;;;;;;;11.10;99.90;;;;;;5074647;28;19924;-76
2023/04/11 08:23:12;;;;;;;;;;;10.10;99.90;;;;;;5056483;28;19909;-77
2023/04/11 08:25:38;;;;;;;;;;;10.20;99.90;;;;;;5056474;28;19912;-77
2023/04/11 08:28:04;;;;;;;;;;;10.40;99.90;;;;;;5056603;28;19908;-77
2023/04/11 08:30:29;;;;;;;;;;;10.70;99.90;;;;;;5056512;28;19916;-77
2023/04/11 08:32:54;;;;;;;;;;;10.80;99.90;;;;;;5074312;28;20447;-76
2023/04/11 08:35:20;;;;;;;;;;;10.70;99.90;;;;;;5056924;28;20026;-77
2023/04/11 08:37:45;;;;;;;;;;;10.60;99.90;;;;;;5057737;28;20287;-75
2023/04/11 08:40:12;;;;;;;;;;;10.30;99.90;;;;;;5057829;28;19915;-78
2023/04/11 08:42:37;;;;;;;;;;;10.10;99.90;;;;;;5056943;28;20403;-77
2023/04/11 08:45:04;;;;;;;;;;;10.00;99.90;;;;;;5057066;28;19923;-78
2023/04/11 08:47:30;;;;;;;;;;;10.20;99.90;;;;;;5075271;28;20346;-78
2023/04/11 08:49:56;;;;;;;;;;;10.40;99.90;;;;;;5057868;28;19989;-78
2023/04/11 08:52:22;;;;;;;;;;;10.60;99.90;;;;;;5057377;28;19912;-77
2023/04/11 08:54:50;;;;;;;;;;;10.60;99.90;;;;;;5059748;28;19947;-78
2023/04/11 08:57:26;;;;;;;;;;;10.60;99.90;;;;;;5077396;28;19962;-78
2023/04/11 08:59:55;;;;;;;;;;;10.50;99.90;;;;;;5079673;28;19913;-77
2023/04/11 09:02:21;;;;;;;;;;;10.50;99.90;;;;;;5079015;28;19951;-78
2023/04/11 09:04:47;;;;;;;;;;;10.80;99.90;;;;;;5061090;28;19908;-78
2023/04/11 09:07:14;;;;;;;;;;;10.80;99.90;;;;;;5060932;28;20287;-78
2023/04/11 09:09:40;;;;;;;;;;;11.10;99.90;;;;;;5079042;28;20068;-78
2023/04/11 09:12:05;;;;;;;;;;;10.70;99.90;;;;;;5060514;28;19919;-78
2023/04/11 09:14:31;;;;;;;;;;;10.90;99.90;;;;;;5078499;28;19916;-78
2023/04/11 09:16:56;;;;;;;;;;;11.10;99.90;;;;;;5078292;28;19908;-78
2023/04/11 09:19:32;;;;;;;;;;;12.20;99.90;;;;;;5078535;28;19936;-78
2023/04/11 09:21:59;;;;;;;;;;;11.40;99.90;;;;;;5078082;28;19916;-78
2023/04/11 09:24:25;;;;;;;;;;;12.30;99.90;;;;;;5060539;28;19917;-78
2023/04/11 09:27:04;;;;;;;;;;;11.50;99.90;;;;;;5060260;28;19994;-78
2023/04/11 09:29:37;;;;;;;;;;;11.70;99.90;;;;;;5078626;28;19923;-78
2023/04/11 09:32:02;;;;;;;;;;;11.90;99.90;;;;;;5078866;28;19912;-78
2023/04/11 09:34:28;;;;;;;;;;;12.10;99.90;;;;;;5078577;28;19965;-78
2023/04/11 09:36:54;;;;;;;;;;;12.20;99.90;;;;;;5078198;28;19964;-78
2023/04/11 09:39:20;;;;;;;;;;;12.20;99.90;;;;;;5060443;28;19927;-78
2023/04/11 09:41:45;;;;;;;;;;;12.40;99.90;;;;;;5060847;28;20275;-78
2023/04/11 09:44:11;;;;;;;;;;;12.40;99.90;;;;;;5078681;28;19908;-78
2023/04/11 09:46:54;;;;;;;;;;;12.20;99.90;;;;;;5060597;28;19909;-78
2023/04/11 09:49:20;;;;;;;;;;;12.30;99.90;;;;;;5061029;28;19909;-78
2023/04/11 09:51:46;;;;;;;;;;;12.60;99.90;;;;;;5077901;28;20003;-78
2023/04/11 09:54:11;;;;;;;;;;;12.70;99.90;;;;;;5078448;28;20379;-78
2023/04/11 09:56:37;;;;;;;;;;;12.60;99.90;;;;;;5077257;28;19909;-78
2023/04/11 09:59:03;;;;;;;;;;;12.50;99.90;;;;;;5077955;28;20007;-78
2023/04/11 10:01:28;;;;;;;;;;;12.20;99.90;;;;;;5059903;28;20368;-78
2023/04/11 10:03:54;;;;;;;;;;;12.10;99.90;;;;;;5060561;28;20007;-78
2023/04/11 10:06:30;;;;;;;;;;;12.20;99.90;;;;;;5059695;28;19913;-78
2023/04/11 10:09:04;;;;;;;;;;;12.20;99.90;;;;;;5077314;28;20383;-78
2023/04/11 10:11:29;;;;;;;;;;;12.40;99.90;;;;;;5059285;28;19912;-78
2023/04/11 10:13:56;;;;;;;;;;;13.20;99.70;;;;;;5060170;28;19909;-78
2023/04/11 10:16:22;;;;;;;;;;;12.30;98.90;;;;;;5060362;28;19915;-78
2023/04/11 10:18:54;;;;;;;;;;;12.20;99.60;;;;;;5059686;28;19916;-78
2023/04/11 10:21:29;;;;;;;;;;;12.40;98.30;;;;;;5077544;28;19925;-76
2023/04/11 10:24:08;;;;;;;;;;;12.20;98.60;;;;;;5078357;28;19963;-78
2023/04/11 10:26:49;;;;;;;;;;;12.20;98.60;;;;;;5059733;28;20425;-78
2023/04/11 10:29:27;;;;;;;;;;;12.40;99.90;;;;;;5077687;28;19909;-78
2023/04/11 10:32:11;;;;;;;;;;;12.60;99.60;;;;;;5060108;28;19928;-78
2023/04/11 10:34:38;;;;;;;;;;;12.70;97.70;;;;;;5077718;28;20342;-78
2023/04/11 10:37:07;;;;;;;;;;;12.70;96.70;;;;;;5077564;28;20389;-78
2023/04/11 10:39:51;;;;;;;;;;;12.80;94.40;;;;;;5058998;28;19909;-78
2023/04/11 10:42:27;;;;;;;;;;;12.90;95.80;;;;;;5077338;28;19908;-78
2023/04/11 10:45:11;;;;;;;;;;;12.80;95.50;;;;;;5059435;28;19909;-78
2023/04/11 10:47:37;;;;;;;;;;;12.90;95.40;;;;;;5077002;28;20011;-78
2023/04/11 10:50:03;;;;;;;;;;;13.00;93.30;;;;;;5058246;28;19944;-78
2023/04/11 10:52:35;;;;;;;;;;;12.70;95.40;;;;;;5076685;28;19913;-78
2023/04/11 10:55:13;;;;;;;;;;;12.50;95.30;;;;;;5076697;28;19955;-78
2023/04/11 10:57:58;;;;;;;;;;;12.50;95.60;;;;;;5076311;28;19913;-78
2023/04/11 11:00:26;;;;;;;;;;;12.80;98.60;;;;;;5075676;28;19944;-77
2023/04/11 11:02:52;;;;;;;;;;;12.70;95.90;;;;;;5057945;28;19913;-78
2023/04/11 11:05:19;;;;;;;;;;;12.50;94.30;;;;;;5076114;28;20417;-79
2023/04/11 11:07:48;;;;;;;;;;;12.30;95.60;;;;;;5057862;28;20012;-78
2023/04/11 11:10:14;;;;;;;;;;;12.20;96.00;;;;;;5057818;28;20000;-78
2023/04/11 11:12:56;;;;;;;;;;;12.20;93.70;;;;;;5057334;28;19927;-78
2023/04/11 11:15:21;;;;;;;;;;;12.40;96.90;;;;;;5075368;28;19995;-78
2023/04/11 11:17:46;;;;;;;;;;;12.60;95.40;;;;;;5075995;28;19960;-78
2023/04/11 11:20:18;;;;;;;;;;;12.80;93.50;;;;;;5057049;28;19916;-78
2023/04/11 11:22:56;;;;;;;;;;;12.80;93.00;;;;;;5058778;28;19915;-78
2023/04/11 11:25:24;;;;;;;;;;;13.10;92.10;;;;;;5075610;28;20279;-78
2023/04/11 11:27:56;;;;;;;;;;;13.30;91.50;;;;;;5075159;28;20287;-78
2023/04/11 11:30:22;;;;;;;;;;;13.40;91.40;;;;;;5075168;28;20362;-78
2023/04/11 11:32:47;;;;;;;;;;;13.40;92.30;;;;;;5074855;28;19969;-76
2023/04/11 11:35:13;;;;;;;;;;;13.40;90.70;;;;;;5057210;28;19971;-76
2023/04/11 11:37:38;;;;;;;;;;;13.20;92.10;;;;;;5075236;28;19954;-76
2023/04/11 11:40:08;;;;;;;;;;;12.90;92.00;;;;;;5060101;28;19908;-78
2023/04/11 11:42:35;;;;;;;;;;;12.70;93.50;;;;;;5058314;28;19908;-76
2023/04/11 11:45:16;;;;;;;;;;;12.80;95.80;;;;;;5056843;28;19912;-76
2023/04/11 11:47:44;;;;;;;;;;;12.70;92.30;;;;;;5074837;28;19909;-76
2023/04/11 11:50:10;;;;;;;;;;;12.80;92.30;;;;;;5074993;28;19922;-76
2023/04/11 11:52:40;;;;;;;;;;;12.90;91.90;;;;;;5056571;28;19959;-76
2023/04/11 11:55:08;;;;;;;;;;;13.00;91.30;;;;;;5074778;28;19916;-76
2023/04/11 11:57:42;;;;;;;;;;;13.10;91.50;;;;;;5056556;28;20424;-76
2023/04/11 12:00:09;;;;;;;;;;;13.30;93.10;;;;;;5074748;28;19915;-76
2023/04/11 12:02:35;;;;;;;;;;;13.50;90.50;;;;;;5074933;28;19909;-76
2023/04/11 12:05:04;;;;;;;;;;;13.50;90.50;;;;;;5056610;28;19923;-76
2023/04/11 12:07:32;;;;;;;;;;;13.50;91.70;;;;;;5074287;28;20371;-76
2023/04/11 12:10:01;;;;;;;;;;;13.70;92.60;;;;;;5056198;28;19908;-76
2023/04/11 12:12:34;;;;;;;;;;;13.90;93.00;;;;;;5074104;28;19934;-76
2023/04/11 12:15:00;;;;;;;;;;;13.80;85.90;;;;;;5073893;28;19966;-78
2023/04/11 12:17:35;;;;;;;;;;;13.50;84.20;;;;;;5056056;28;19908;-76
2023/04/11 12:20:01;;;;;;;;;;;13.30;87.80;;;;;;5073732;28;20383;-76
2023/04/11 12:22:26;;;;;;;;;;;13.20;89.50;;;;;;5074438;28;20398;-76
2023/04/11 12:25:02;;;;;;;;;;;13.10;86.60;;;;;;5074399;28;19908;-76
2023/04/11 12:27:27;;;;;;;;;;;13.10;90.00;;;;;;5056136;28;19915;-76
2023/04/11 12:29:53;;;;;;;;;;;14.10;86.00;;;;;;5074052;28;19960;-76
2023/04/11 12:32:18;;;;;;;;;;;13.30;89.60;;;;;;5059123;28;19916;-76
2023/04/11 12:34:43;;;;;;;;;;;13.70;86.90;;;;;;5077448;28;19908;-77
2023/04/11 12:37:09;;;;;;;;;;;14.30;86.20;;;;;;5077853;28;19916;-77
2023/04/11 12:39:35;;;;;;;;;;;14.70;84.30;;;;;;5077270;28;19999;-78
2023/04/11 12:42:00;;;;;;;;;;;14.60;83.60;;;;;;5059794;28;19912;-78
2023/04/11 12:44:26;;;;;;;;;;;14.40;82.40;;;;;;5060134;28;19909;-77
2023/04/11 12:46:51;;;;;;;;;;;14.50;84.70;;;;;;5077394;28;20002;-78
2023/04/11 12:49:17;;;;;;;;;;;14.70;85.60;;;;;;5077228;28;19908;-78
2023/04/11 12:51:42;;;;;;;;;;;14.70;83.60;;;;;;5059161;28;20308;-77
2023/04/11 12:54:08;;;;;;;;;;;15.00;84.90;;;;;;5059331;28;19908;-78
2023/04/11 12:56:33;;;;;;;;;;;15.40;86.90;;;;;;5077459;28;19948;-78
2023/04/11 12:58:59;;;;;;;;;;;15.50;85.70;;;;;;5077367;28;19915;-78
2023/04/11 13:01:25;;;;;;;;;;;15.00;80.60;;;;;;5076833;28;20295;-77
2023/04/11 13:03:50;;;;;;;;;;;15.40;76.50;;;;;;5077098;28;19909;-77
2023/04/11 13:06:16;;;;;;;;;;;15.30;80.70;;;;;;5076894;28;20347;-77
2023/04/11 13:08:41;;;;;;;;;;;15.30;77.60;;;;;;5076721;28;19910;-78
2023/04/11 13:11:07;;;;;;;;;;;15.60;77.60;;;;;;5076539;28;20286;-78
2023/04/11 13:13:32;;;;;;;;;;;15.50;70.20;;;;;;5076711;28;19999;-78
2023/04/11 13:15:58;;;;;;;;;;;15.30;72.80;;;;;;5076446;28;20359;-78
2023/04/11 13:18:23;;;;;;;;;;;15.40;75.30;;;;;;5076497;28;19915;-77
2023/04/11 13:20:49;;;;;;;;;;;15.60;75.90;;;;;;5058313;28;19969;-78
2023/04/11 13:23:14;;;;;;;;;;;15.70;74.80;;;;;;5076109;28;19958;-78
2023/04/11 13:25:40;;;;;;;;;;;16.00;74.90;;;;;;5076213;28;20298;-78
2023/04/11 13:28:06;;;;;;;;;;;15.90;72.70;;;;;;5058194;28;19915;-78
2023/04/11 13:30:31;;;;;;;;;;;15.70;74.10;;;;;;5075844;28;20359;-78
2023/04/11 13:32:57;;;;;;;;;;;15.50;73.90;;;;;;5058007;28;19908;-78
2023/04/11 13:35:22;;;;;;;;;;;15.40;76.80;;;;;;5057958;28;19916;-78
2023/04/11 13:37:48;;;;;;;;;;;15.40;73.40;;;;;;5057810;28;19915;-78
2023/04/11 13:40:14;;;;;;;;;;;15.20;72.00;;;;;;5076015;28;19908;-77
2023/04/11 13:42:40;;;;;;;;;;;15.20;72.80;;;;;;5057243;28;19912;-78
2023/04/11 13:45:06;;;;;;;;;;;15.10;68.80;;;;;;5075869;28;19908;-78
2023/04/11 13:47:32;;;;;;;;;;;15.40;71.10;;;;;;5057917;28;19984;-78
2023/04/11 13:49:57;;;;;;;;;;;15.70;70.50;;;;;;5058026;28;20372;-78
2023/04/11 13:52:23;;;;;;;;;;;15.70;71.20;;;;;;5057866;28;19919;-77
2023/04/11 13:54:48;;;;;;;;;;;15.60;68.10;;;;;;5076038;28;20424;-78
2023/04/11 13:57:14;;;;;;;;;;;15.80;66.80;;;;;;5076961;28;19995;-77
2023/04/11 13:59:39;;;;;;;;;;;15.70;65.20;;;;;;5075968;28;19935;-78
2023/04/11 14:02:06;;;;;;;;;;;16.00;69.20;;;;;;5057779;28;19908;-78
2023/04/11 14:04:32;;;;;;;;;;;16.30;67.20;;;;;;5075663;28;19908;-78
2023/04/11 14:06:57;;;;;;;;;;;16.40;66.40;;;;;;5075626;28;19909;-77
2023/04/11 14:09:23;;;;;;;;;;;16.60;69.60;;;;;;5057989;28;19909;-77
2023/04/11 14:11:48;;;;;;;;;;;16.70;62.70;;;;;;5057687;28;20371;-78
2023/04/11 14:14:13;;;;;;;;;;;16.60;66.50;;;;;;5076035;28;20239;-78
2023/04/11 14:16:39;;;;;;;;;;;16.60;65.90;;;;;;5058974;28;19923;-77
2023/04/11 14:19:05;;;;;;;;;;;16.70;62.70;;;;;;5058091;28;19999;-77
2023/04/11 14:21:31;;;;;;;;;;;16.80;64.00;;;;;;5076630;28;19960;-77